createdAt,value
2023-11-24T00:01:43.829Z,75.40
2023-11-24T00:04:29.550Z,74.77
2023-11-24T00:07:18.470Z,75.55
2023-11-24T00:10:05.993Z,75.53
2023-11-24T00:12:51.761Z,75.32
2023-11-24T00:15:38.204Z,75.20
2023-11-24T00:18:24.149Z,75.38
2023-11-24T00:21:10.487Z,75.58
2023-11-24T00:23:55.829Z,75.40
2023-11-24T00:26:41.309Z,75.90
2023-11-24T00:29:27.630Z,76.01
2023-11-24T00:32:13.451Z,76.04
2023-11-24T00:34:58.897Z,76.39
2023-11-24T00:37:45.241Z,75.89
2023-11-24T00:40:32.059Z,76.56
2023-11-24T00:43:17.649Z,76.60
2023-11-24T00:46:03.450Z,76.13
2023-11-24T00:48:49.304Z,76.36
2023-11-24T00:51:35.011Z,76.75
2023-11-24T00:54:20.533Z,76.95
2023-11-24T00:57:06.431Z,76.82
2023-11-24T00:59:52.106Z,76.94
2023-11-24T01:02:38.262Z,77.12
2023-11-24T01:05:23.998Z,77.44
2023-11-24T01:08:09.406Z,76.99
2023-11-24T01:10:57.622Z,77.07
2023-11-24T01:13:43.354Z,77.04
2023-11-24T01:16:29.911Z,77.61
2023-11-24T01:19:18.679Z,77.67
2023-11-24T01:22:04.629Z,77.61
2023-11-24T01:24:49.973Z,77.44
2023-11-24T01:27:35.498Z,77.64
2023-11-24T01:30:20.979Z,78.05
2023-11-24T01:33:06.730Z,77.98
2023-11-24T01:35:53.920Z,77.80
2023-11-24T01:38:39.710Z,77.86
2023-11-24T01:41:25.263Z,78.42
2023-11-24T01:44:10.728Z,77.95
2023-11-24T01:46:56.627Z,77.74
2023-11-24T01:49:42.357Z,78.20
2023-11-24T01:52:28.708Z,78.29
2023-11-24T01:55:14.764Z,77.85
2023-11-24T01:58:00.864Z,78.18
2023-11-24T02:00:47.017Z,78.09
2023-11-24T02:03:32.649Z,78.35
2023-11-24T02:06:19.253Z,78.48
2023-11-24T02:09:05.249Z,78.55
2023-11-24T02:11:51.505Z,78.60
2023-11-24T02:14:37.298Z,78.66
2023-11-24T02:17:22.677Z,78.67
2023-11-24T02:20:12.510Z,78.88
2023-11-24T02:22:58.105Z,78.55
2023-11-24T02:25:44.613Z,79.70
2023-11-24T02:28:30.197Z,79.38
2023-11-24T02:31:16.106Z,79.25
2023-11-24T02:34:05.269Z,79.09
2023-11-24T02:36:50.992Z,80.23
2023-11-24T02:39:36.430Z,79.50
2023-11-24T02:42:22.061Z,79.60
2023-11-24T02:45:08.450Z,78.92
2023-11-24T02:47:54.335Z,79.72
2023-11-24T02:50:40.166Z,79.39
2023-11-24T02:53:25.559Z,79.17
2023-11-24T02:56:11.606Z,79.26
2023-11-24T02:58:57.221Z,79.71
2023-11-24T03:01:42.933Z,80.02
2023-11-24T03:04:29.135Z,80.07
2023-11-24T03:07:15.509Z,80.10
2023-11-24T03:10:01.313Z,80.33
2023-11-24T03:12:47.535Z,79.97
2023-11-24T03:15:33.219Z,80.07
2023-11-24T03:18:18.958Z,80.43
2023-11-24T03:21:04.770Z,80.66
2023-11-24T03:23:50.191Z,80.15
2023-11-24T03:26:35.928Z,80.49
2023-11-24T03:29:21.591Z,80.56
2023-11-24T03:32:08.107Z,80.60
2023-11-24T03:34:53.709Z,81.43
2023-11-24T03:37:39.227Z,79.26
2023-11-24T03:40:25.251Z,77.53
2023-11-24T03:43:11.132Z,77.31
2023-11-24T03:45:57.717Z,77.58
2023-11-24T03:48:43.632Z,78.71
2023-11-24T03:51:28.981Z,79.09
2023-11-24T03:54:14.604Z,80.09
2023-11-24T03:57:00.303Z,80.27
2023-11-24T03:59:46.277Z,80.36
2023-11-24T04:02:32.039Z,80.79
2023-11-24T04:05:17.771Z,80.98
2023-11-24T04:08:03.523Z,81.32
2023-11-24T04:10:48.952Z,81.37
2023-11-24T04:13:34.227Z,81.85
2023-11-24T04:16:20.856Z,81.91
2023-11-24T04:19:07.234Z,82.15
2023-11-24T04:21:52.715Z,82.06
2023-11-24T04:24:40.008Z,82.52
2023-11-24T04:27:25.658Z,82.64
2023-11-24T04:30:11.941Z,83.06
2023-11-24T04:32:58.505Z,82.91
2023-11-24T04:35:43.931Z,83.36
2023-11-24T04:38:29.859Z,83.47
2023-11-24T04:41:15.843Z,83.74
2023-11-24T04:44:01.582Z,83.30
2023-11-24T04:46:47.585Z,83.32
2023-11-24T04:49:33.333Z,83.30
2023-11-24T04:52:19.138Z,83.24
2023-11-24T04:55:07.724Z,83.20
2023-11-24T04:57:53.546Z,83.01
2023-11-24T05:00:39.433Z,83.23
2023-11-24T05:03:25.210Z,82.91
2023-11-24T05:06:11.442Z,82.70
2023-11-24T05:08:57.192Z,82.82
2023-11-24T05:11:42.596Z,82.61
2023-11-24T05:14:28.212Z,82.68
2023-11-24T05:17:14.017Z,82.37
2023-11-24T05:19:59.648Z,82.10
2023-11-24T05:22:46.075Z,82.08
2023-11-24T05:25:31.423Z,82.04
2023-11-24T05:28:17.096Z,81.73
2023-11-24T05:33:52.786Z,81.58
2023-11-24T05:36:38.348Z,81.48
2023-11-24T05:39:24.055Z,81.59
2023-11-24T05:42:09.922Z,81.30
2023-11-24T05:44:55.403Z,81.00
2023-11-24T05:47:41.568Z,81.07
2023-11-24T05:50:27.400Z,81.28
2023-11-24T05:53:13.026Z,81.11
2023-11-24T05:55:58.414Z,80.91
2023-11-24T05:58:45.281Z,80.77
2023-11-24T06:01:31.093Z,80.99
2023-11-24T06:04:18.470Z,81.16
2023-11-24T06:07:05.712Z,80.96
2023-11-24T06:09:52.026Z,81.24
2023-11-24T06:12:37.393Z,80.81
2023-11-24T06:15:23.994Z,80.81
2023-11-24T06:18:10.011Z,81.17
2023-11-24T06:20:55.403Z,81.19
2023-11-24T06:23:41.118Z,81.08
2023-11-24T06:26:28.861Z,80.78
2023-11-24T06:29:15.892Z,81.23
2023-11-24T06:32:01.397Z,81.10
2023-11-24T06:34:46.862Z,80.96
2023-11-24T06:37:32.393Z,81.08
2023-11-24T06:40:18.121Z,81.00
2023-11-24T06:43:03.833Z,80.92
2023-11-24T06:45:49.419Z,80.86
2023-11-24T06:48:36.527Z,81.02
2023-11-24T06:51:22.111Z,80.75
2023-11-24T06:54:07.979Z,80.49
2023-11-24T06:56:53.759Z,80.14
2023-11-24T06:59:39.395Z,80.50
2023-11-24T07:02:25.216Z,80.13
2023-11-24T07:05:10.760Z,80.35
2023-11-24T07:07:56.600Z,80.23
2023-11-24T07:10:42.078Z,80.38
2023-11-24T07:13:28.588Z,80.08
2023-11-24T07:16:14.812Z,80.20
2023-11-24T07:19:01.727Z,79.97
2023-11-24T07:21:47.666Z,80.28
2023-11-24T07:24:33.806Z,79.81
2023-11-24T07:27:19.167Z,79.64
2023-11-24T07:30:05.014Z,79.32
2023-11-24T07:32:54.145Z,79.37
2023-11-24T07:35:40.228Z,78.92
2023-11-24T07:38:26.542Z,78.64
2023-11-24T07:41:12.464Z,78.76
2023-11-24T07:43:58.844Z,78.20
2023-11-24T07:46:44.572Z,78.37
2023-11-24T07:49:29.919Z,78.10
2023-11-24T07:52:16.519Z,77.80
2023-11-24T07:55:01.875Z,78.07
2023-11-24T07:57:47.955Z,77.70
2023-11-24T08:00:33.966Z,78.01
2023-11-24T08:03:20.541Z,77.49
2023-11-24T08:06:09.309Z,76.99
2023-11-24T08:08:57.734Z,76.61
2023-11-24T08:11:43.471Z,76.64
2023-11-24T08:14:30.673Z,76.92
2023-11-24T08:17:16.201Z,76.84
2023-11-24T08:20:01.667Z,76.75
2023-11-24T08:22:47.105Z,76.71
2023-11-24T08:25:32.572Z,77.00
2023-11-24T08:28:17.838Z,76.60
2023-11-24T08:31:03.493Z,76.57
2023-11-24T08:33:52.144Z,76.47
2023-11-24T08:36:37.957Z,76.42
2023-11-24T08:39:23.883Z,76.15
2023-11-24T08:42:10.877Z,76.39
2023-11-24T08:44:56.134Z,76.02
2023-11-24T08:47:44.799Z,76.06
2023-11-24T08:50:31.016Z,75.97
2023-11-24T08:53:16.723Z,76.35
2023-11-24T08:56:05.217Z,75.76
2023-11-24T08:58:51.640Z,75.78
2023-11-24T09:01:38.127Z,75.12
2023-11-24T09:04:24.436Z,75.17
2023-11-24T09:07:10.506Z,75.00
2023-11-24T09:09:56.177Z,74.34
2023-11-24T09:12:42.029Z,74.19
2023-11-24T09:15:27.698Z,74.42
2023-11-24T09:18:13.482Z,73.71
2023-11-24T09:20:59.126Z,73.66
2023-11-24T09:23:45.461Z,73.16
2023-11-24T09:26:30.947Z,72.86
2023-11-24T09:29:16.414Z,73.29
2023-11-24T09:32:02.644Z,73.23
2023-11-24T09:34:49.747Z,73.09
2023-11-24T09:40:24.110Z,73.02
2023-11-24T09:43:11.509Z,72.89
2023-11-24T09:45:57.486Z,72.64
2023-11-24T09:48:44.614Z,72.63
2023-11-24T09:51:30.427Z,73.01
2023-11-24T09:54:19.206Z,73.04
2023-11-24T09:57:05.323Z,73.35
2023-11-24T09:59:51.395Z,73.02
2023-11-24T10:02:38.115Z,73.21
2023-11-24T10:05:23.639Z,72.78
2023-11-24T10:08:09.326Z,72.92
2023-11-24T10:11:09.769Z,72.67
2023-11-24T10:13:56.723Z,73.04
2023-11-24T10:16:43.343Z,72.50
2023-11-24T10:19:29.139Z,72.50
2023-11-24T10:22:14.610Z,73.00
2023-11-24T10:25:00.358Z,72.43
2023-11-24T10:27:46.208Z,72.82
2023-11-24T10:30:33.700Z,72.60
2023-11-24T10:33:34.896Z,72.03
2023-11-24T10:36:26.550Z,72.25
2023-11-24T10:39:16.957Z,72.02
2023-11-24T10:42:04.858Z,71.60
2023-11-24T10:44:55.818Z,71.36
2023-11-24T10:48:01.330Z,71.44
2023-11-24T10:51:48.529Z,70.77
2023-11-24T10:54:40.622Z,71.09
2023-11-24T10:57:30.020Z,71.64
2023-11-24T11:00:16.222Z,71.32
2023-11-24T11:03:02.192Z,71.38
2023-11-24T11:06:10.247Z,71.12
2023-11-24T11:09:20.567Z,71.24
2023-11-24T11:12:20.747Z,71.52
2023-11-24T11:15:10.609Z,71.82
2023-11-24T11:18:15.733Z,72.40
2023-11-24T11:21:12.530Z,72.54
2023-11-24T11:23:59.047Z,72.99
2023-11-24T11:26:46.668Z,73.29
2023-11-24T11:29:33.553Z,73.47
2023-11-24T11:32:19.124Z,73.73
2023-11-24T11:35:04.978Z,73.75
2023-11-24T11:37:59.265Z,74.74
2023-11-24T11:40:45.797Z,74.51
2023-11-24T11:43:32.251Z,74.85
2023-11-24T11:46:17.927Z,75.02
2023-11-24T11:49:07.520Z,75.31
2023-11-24T11:52:02.816Z,75.01
2023-11-24T11:54:50.941Z,75.22
2023-11-24T11:57:36.651Z,75.09
2023-11-24T12:00:30.099Z,74.81
2023-11-24T12:03:19.606Z,75.41
2023-11-24T12:06:07.100Z,74.74
2023-11-24T12:08:53.178Z,74.44
2023-11-24T12:11:39.068Z,74.40
2023-11-24T12:14:24.515Z,74.29
2023-11-24T12:17:11.652Z,74.80
2023-11-24T12:19:57.793Z,73.90
2023-11-24T12:22:45.190Z,74.04
2023-11-24T12:25:31.586Z,74.03
2023-11-24T12:28:17.490Z,73.56
2023-11-24T12:31:04.547Z,73.26
2023-11-24T12:33:53.414Z,73.13
2023-11-24T12:36:38.902Z,72.96
2023-11-24T12:39:25.263Z,73.23
2023-11-24T12:42:12.282Z,72.95
2023-11-24T12:45:00.970Z,73.92
2023-11-24T12:47:46.364Z,73.03
2023-11-24T12:50:32.107Z,73.49
2023-11-24T12:53:21.518Z,73.15
2023-11-24T12:56:07.606Z,72.94
2023-11-24T12:58:53.257Z,73.01
2023-11-24T13:01:39.060Z,72.54
2023-11-24T13:04:25.187Z,72.11
2023-11-24T13:07:10.876Z,71.95
2023-11-24T13:09:56.420Z,72.59
2023-11-24T13:12:42.852Z,71.26
2023-11-24T13:15:29.454Z,71.09
2023-11-24T13:18:15.230Z,71.12
2023-11-24T13:21:01.048Z,71.00
2023-11-24T13:23:46.959Z,70.45
2023-11-24T13:26:32.419Z,70.77
2023-11-24T13:29:17.759Z,70.22
2023-11-24T13:32:04.283Z,70.67
2023-11-24T13:34:50.214Z,70.83
2023-11-24T13:37:36.113Z,71.63
2023-11-24T13:40:27.550Z,70.82
2023-11-24T13:43:14.764Z,70.80
2023-11-24T13:46:00.789Z,70.73
2023-11-24T13:48:48.039Z,70.45
2023-11-24T13:51:33.506Z,70.04
2023-11-24T13:54:19.202Z,69.89
2023-11-24T13:57:05.128Z,69.13
2023-11-24T13:59:50.911Z,68.77
2023-11-24T14:02:37.606Z,68.48
2023-11-24T14:05:23.367Z,68.93
2023-11-24T14:08:10.676Z,68.97
2023-11-24T14:10:56.230Z,69.03
2023-11-24T14:13:41.820Z,69.04
2023-11-24T14:16:29.626Z,69.37
2023-11-24T14:19:15.622Z,69.23
2023-11-24T14:22:05.809Z,69.24
2023-11-24T14:24:51.924Z,69.30
2023-11-24T14:27:40.946Z,69.07
2023-11-24T14:30:26.504Z,69.42
2023-11-24T14:33:12.804Z,70.12
2023-11-24T14:35:58.681Z,69.35
2023-11-24T14:38:49.634Z,69.13
2023-11-24T14:41:35.097Z,69.89
2023-11-24T14:44:21.449Z,69.01
2023-11-24T14:47:09.863Z,69.42
2023-11-24T14:49:55.415Z,69.20
2023-11-24T14:52:41.091Z,70.43
2023-11-24T14:55:30.025Z,69.73
2023-11-24T14:58:18.402Z,70.43
2023-11-24T15:01:06.442Z,70.94
2023-11-24T15:03:53.819Z,71.36
2023-11-24T15:06:40.098Z,71.44
2023-11-24T15:09:26.534Z,71.83
2023-11-24T15:12:12.244Z,72.08
2023-11-24T15:15:00.033Z,72.06
2023-11-24T15:17:45.655Z,72.22
2023-11-24T15:20:33.826Z,72.69
2023-11-24T15:23:20.366Z,72.58
2023-11-24T15:26:06.470Z,72.75
2023-11-24T15:28:55.490Z,72.99
2023-11-24T15:31:42.768Z,72.71
2023-11-24T15:34:30.053Z,72.35
2023-11-24T15:37:16.113Z,72.60
2023-11-24T15:40:02.553Z,72.33
2023-11-24T15:42:55.470Z,72.80
2023-11-24T15:45:42.861Z,72.66
2023-11-24T15:48:29.773Z,72.74
2023-11-24T15:51:19.866Z,72.86
2023-11-24T15:54:08.396Z,72.41
2023-11-24T15:56:55.475Z,72.46
2023-11-24T15:59:47.281Z,72.42
2023-11-24T16:02:33.921Z,72.75
2023-11-24T16:05:19.474Z,72.56
2023-11-24T16:08:09.144Z,72.51
2023-11-24T16:10:57.631Z,72.45
2023-11-24T16:13:46.624Z,71.98
2023-11-24T16:16:33.038Z,72.03
2023-11-24T16:19:18.495Z,71.75
2023-11-24T16:22:04.384Z,72.11
2023-11-24T16:24:52.138Z,71.54
2023-11-24T16:27:41.966Z,72.17
2023-11-24T16:30:28.043Z,72.15
2023-11-24T16:33:14.045Z,72.17
2023-11-24T16:36:02.060Z,72.60
2023-11-24T16:38:47.284Z,71.95
2023-11-24T16:41:34.071Z,72.13
2023-11-24T16:44:19.658Z,72.22
2023-11-24T16:47:07.311Z,72.48
2023-11-24T16:49:54.208Z,71.76
2023-11-24T16:52:47.480Z,72.26
2023-11-24T16:55:33.902Z,71.98
2023-11-24T16:58:20.064Z,71.93
2023-11-24T17:01:06.236Z,72.05
2023-11-24T17:03:52.118Z,72.44
2023-11-24T17:06:37.603Z,72.07
2023-11-24T17:09:23.712Z,72.08
2023-11-24T17:12:09.335Z,72.04
2023-11-24T17:14:55.255Z,72.27
2023-11-24T17:17:42.219Z,72.48
2023-11-24T17:20:28.303Z,72.20
2023-11-24T17:23:17.612Z,72.36
2023-11-24T17:26:03.786Z,72.18
2023-11-24T17:28:54.083Z,72.44
2023-11-24T17:31:42.112Z,72.83
2023-11-24T17:34:28.089Z,72.27
2023-11-24T17:37:13.781Z,72.46
2023-11-24T17:40:01.591Z,72.73
2023-11-24T17:42:46.895Z,72.24
2023-11-24T17:45:33.700Z,72.72
2023-11-24T17:48:20.983Z,72.49
2023-11-24T17:51:06.676Z,72.52
2023-11-24T17:55:50.919Z,72.56
2023-11-24T17:58:36.585Z,72.81
2023-11-24T18:01:24.488Z,72.94
2023-11-24T18:04:10.367Z,73.03
2023-11-24T18:06:56.016Z,72.68
2023-11-24T18:09:41.518Z,72.51
2023-11-24T18:12:30.297Z,73.09
2023-11-24T18:15:15.953Z,72.98
2023-11-24T18:18:02.651Z,73.10
2023-11-24T18:20:48.838Z,72.47
2023-11-24T18:23:35.947Z,72.78
2023-11-24T18:26:21.454Z,72.60
2023-11-24T18:29:07.779Z,72.75
2023-11-24T18:31:53.862Z,72.56
2023-11-24T18:34:40.202Z,72.63
2023-11-24T18:37:27.019Z,73.20
2023-11-24T18:40:14.764Z,72.80
2023-11-24T18:43:00.304Z,72.42
2023-11-24T18:45:45.715Z,72.95
2023-11-24T18:48:31.264Z,72.48
2023-11-24T18:51:16.828Z,72.36
2023-11-24T18:54:02.369Z,72.58
2023-11-24T18:56:48.864Z,72.58
2023-11-24T18:59:34.428Z,72.55
2023-11-24T19:02:20.245Z,71.96
2023-11-24T19:05:07.065Z,71.77
2023-11-24T19:07:52.656Z,71.85
2023-11-24T19:10:39.142Z,71.84
2023-11-24T19:13:25.640Z,71.74
2023-11-24T19:16:10.988Z,71.51
2023-11-24T19:18:56.522Z,71.28
2023-11-24T19:21:42.245Z,71.27
2023-11-24T19:24:28.338Z,71.53
2023-11-24T19:27:14.126Z,71.14
2023-11-24T19:30:03.177Z,71.02
2023-11-24T19:32:48.931Z,71.04
2023-11-24T19:35:34.676Z,71.37
2023-11-24T19:38:20.509Z,71.42
2023-11-24T19:41:06.405Z,71.78
2023-11-24T19:43:53.110Z,71.87
2023-11-24T19:46:39.491Z,71.30
2023-11-24T19:49:25.295Z,71.36
2023-11-24T19:52:11.000Z,71.51
2023-11-24T19:54:56.946Z,71.67
2023-11-24T19:57:42.435Z,71.57
2023-11-24T20:00:27.826Z,71.87
2023-11-24T20:03:13.322Z,71.40
2023-11-24T20:05:58.862Z,71.46
2023-11-24T20:08:46.407Z,71.76
2023-11-24T20:11:31.755Z,71.04
2023-11-24T20:14:18.596Z,71.76
2023-11-24T20:17:05.207Z,71.47
2023-11-24T20:19:51.164Z,71.23
2023-11-24T20:22:36.887Z,70.85
2023-11-24T20:25:22.429Z,70.93
2023-11-24T20:28:10.715Z,70.70
2023-11-24T20:30:57.267Z,71.27
2023-11-24T20:33:43.665Z,70.71
2023-11-24T20:36:29.529Z,70.41
2023-11-24T20:39:17.197Z,70.73
2023-11-24T20:42:02.677Z,70.06
2023-11-24T20:44:49.135Z,70.15
2023-11-24T20:47:35.494Z,70.29
2023-11-24T20:50:21.063Z,70.17
2023-11-24T20:53:06.817Z,69.63
2023-11-24T20:55:52.459Z,69.64
2023-11-24T20:58:39.117Z,69.79
2023-11-24T21:01:25.675Z,69.83
2023-11-24T21:04:13.485Z,70.09
2023-11-24T21:07:01.321Z,70.07
2023-11-24T21:09:47.459Z,70.18
2023-11-24T21:12:33.344Z,69.87
2023-11-24T21:15:19.859Z,69.45
2023-11-24T21:18:06.598Z,69.66
2023-11-24T21:20:54.772Z,70.24
2023-11-24T21:23:42.098Z,69.78
2023-11-24T21:26:29.494Z,69.84
2023-11-24T21:29:15.185Z,69.44
2023-11-24T21:32:00.868Z,69.01
2023-11-24T21:34:46.701Z,69.24
2023-11-24T21:37:32.215Z,69.16
2023-11-24T21:40:18.948Z,68.64
2023-11-24T21:43:04.367Z,68.83
2023-11-24T21:45:49.831Z,68.63
2023-11-24T21:48:36.680Z,69.17
2023-11-24T21:51:22.644Z,68.65
2023-11-24T21:54:08.652Z,69.36
2023-11-24T21:56:54.351Z,69.14
2023-11-24T21:59:40.250Z,69.55
2023-11-24T22:02:28.623Z,69.53
2023-11-24T22:05:14.824Z,69.47
2023-11-24T22:08:00.336Z,70.23
2023-11-24T22:10:46.069Z,70.31
2023-11-24T22:13:32.280Z,70.60
2023-11-24T22:16:17.949Z,70.83
2023-11-24T22:19:03.741Z,71.56
2023-11-24T22:21:49.882Z,71.72
2023-11-24T22:24:35.446Z,72.09
2023-11-24T22:27:24.195Z,72.52
2023-11-24T22:30:10.748Z,72.63
2023-11-24T22:32:56.835Z,73.29
2023-11-24T22:35:43.608Z,73.25
2023-11-24T22:38:29.218Z,73.80
2023-11-24T22:41:24.338Z,73.77
2023-11-24T22:44:09.856Z,73.82
2023-11-24T22:46:55.916Z,73.42
2023-11-24T22:49:41.949Z,73.75
2023-11-24T22:52:29.026Z,74.04
2023-11-24T22:55:15.207Z,73.82
2023-11-24T22:58:00.812Z,73.89
2023-11-24T23:00:47.443Z,74.08
2023-11-24T23:03:33.340Z,74.49
2023-11-24T23:06:19.559Z,74.31
2023-11-24T23:09:08.034Z,73.89
2023-11-24T23:11:53.783Z,73.99
2023-11-24T23:14:40.181Z,74.05
2023-11-24T23:17:26.305Z,74.05
2023-11-24T23:20:12.378Z,73.75
2023-11-24T23:22:59.134Z,74.26
2023-11-24T23:25:44.585Z,74.14
2023-11-24T23:28:30.211Z,73.88
2023-11-24T23:31:15.909Z,73.71
2023-11-24T23:34:01.676Z,73.74
2023-11-24T23:36:47.336Z,73.81
2023-11-24T23:39:36.153Z,73.51
2023-11-24T23:42:25.592Z,73.63
2023-11-24T23:45:11.846Z,73.44
2023-11-24T23:47:59.254Z,73.46
2023-11-24T23:50:44.877Z,73.36
2023-11-24T23:53:30.508Z,72.99
2023-11-24T23:56:16.492Z,73.53
2023-11-24T23:59:03.690Z,73.00
